Time;durP1;ratioP1;P1;durP2;ratioP2;P2;SDS_P1;SDS_P2;PMS_P1;PMS_P2;Temp;Humidity;BMP_temperature;BMP_pressure;BME280_temperature;BME280_humidity;BME280_pressure;Samples;Min_cycle;Max_cycle;Signal;HPM_P1;HPM_P2
2023/10/20 00:01:15;;;;;;;11.50;10.30;;;14.70;99.90;;;;;;6103975;23;20416;-71
2023/10/20 00:03:41;;;;;;;10.07;9.17;;;14.80;99.90;;;;;;6103191;23;20165;-71
2023/10/20 00:06:08;;;;;;;11.33;10.17;;;14.80;99.90;;;;;;6104054;23;20149;-73
2023/10/20 00:08:34;;;;;;;10.00;9.03;;;14.80;99.90;;;;;;6101727;23;20383;-71
2023/10/20 00:11:07;;;;;;;13.70;9.50;;;14.80;99.90;;;;;;6105099;23;20376;-73
2023/10/20 00:13:33;;;;;;;12.13;10.80;;;14.70;99.90;;;;;;6102436;23;20291;-71
2023/10/20 00:15:59;;;;;;;10.80;9.80;;;14.80;99.90;;;;;;6103216;23;20376;-70
2023/10/20 00:18:24;;;;;;;11.40;10.20;;;14.80;99.90;;;;;;6103930;23;20406;-71
2023/10/20 00:20:50;;;;;;;12.00;10.67;;;14.80;99.90;;;;;;6103190;23;20423;-71
2023/10/20 00:23:16;;;;;;;12.67;10.43;;;14.80;99.90;;;;;;6104264;23;20543;-70
2023/10/20 00:25:42;;;;;;;11.27;10.17;;;14.80;99.90;;;;;;6103859;23;20395;-71
2023/10/20 00:28:09;;;;;;;12.17;10.97;;;14.80;99.90;;;;;;6101554;23;20180;-71
2023/10/20 00:30:41;;;;;;;11.60;10.40;;;14.80;99.90;;;;;;6102879;23;20617;-71
2023/10/20 00:33:07;;;;;;;10.80;9.67;;;14.80;99.90;;;;;;6102849;23;20422;-70
2023/10/20 00:35:32;;;;;;;14.67;10.90;;;14.80;99.90;;;;;;6078506;23;20676;-72
2023/10/20 00:37:59;;;;;;;11.93;10.70;;;14.80;99.90;;;;;;6102762;23;20467;-71
2023/10/20 00:40:25;;;;;;;12.33;11.03;;;14.80;99.90;;;;;;6102328;23;20231;-72
2023/10/20 00:42:51;;;;;;;13.33;10.40;;;14.80;99.90;;;;;;6053009;23;20383;-70
2023/10/20 00:45:16;;;;;;;10.47;9.47;;;14.80;99.90;;;;;;6102568;23;20432;-70
2023/10/20 00:47:44;;;;;;;12.37;11.10;;;14.80;99.90;;;;;;6102973;23;20139;-71
2023/10/20 00:50:13;;;;;;;12.00;10.87;;;14.80;99.90;;;;;;6103478;23;20139;-71
2023/10/20 00:52:44;;;;;;;14.07;11.80;;;14.80;99.90;;;;;;6102655;23;20743;-70
2023/10/20 00:55:11;;;;;;;13.73;11.73;;;14.80;99.90;;;;;;6102681;23;20390;-70
2023/10/20 00:57:38;;;;;;;13.47;11.90;;;14.70;99.90;;;;;;6102753;23;20389;-71
2023/10/20 01:00:04;;;;;;;12.13;10.87;;;14.70;99.90;;;;;;6102791;23;20364;-70
2023/10/20 01:02:30;;;;;;;13.20;11.87;;;14.70;99.90;;;;;;6100489;23;20505;-71
2023/10/20 01:04:57;;;;;;;13.70;11.13;;;14.70;99.90;;;;;;6102564;23;20908;-73
2023/10/20 01:07:24;;;;;;;12.13;11.00;;;14.70;99.90;;;;;;6100700;23;20379;-71
2023/10/20 01:09:51;;;;;;;12.47;11.20;;;14.70;99.90;;;;;;6101762;23;20659;-71
2023/10/20 01:12:16;;;;;;;14.83;12.00;;;14.70;99.90;;;;;;6102966;23;20391;-71
2023/10/20 01:14:42;;;;;;;13.00;11.60;;;14.70;99.90;;;;;;6101797;23;20713;-70
2023/10/20 01:17:10;;;;;;;16.43;11.20;;;14.70;99.90;;;;;;6101863;23;20182;-72
2023/10/20 01:19:37;;;;;;;12.23;11.03;;;14.70;99.90;;;;;;6102180;23;20412;-70
2023/10/20 01:22:03;;;;;;;13.83;11.37;;;14.70;99.90;;;;;;6100943;23;20406;-70
2023/10/20 01:24:29;;;;;;;11.87;10.60;;;14.70;99.90;;;;;;6101990;23;20388;-71
2023/10/20 01:26:55;;;;;;;14.30;11.23;;;14.70;99.90;;;;;;6100881;23;20391;-70
2023/10/20 01:29:20;;;;;;;12.03;10.73;;;14.70;99.90;;;;;;6102077;23;20198;-71
2023/10/20 01:31:46;;;;;;;12.40;11.10;;;14.70;99.90;;;;;;6100162;23;20144;-71
2023/10/20 01:34:12;;;;;;;11.97;10.77;;;14.80;99.90;;;;;;6101622;23;20251;-71
2023/10/20 01:36:39;;;;;;;14.03;11.20;;;14.80;99.90;;;;;;6101656;23;20174;-70
2023/10/20 01:39:05;;;;;;;12.70;11.40;;;14.80;99.90;;;;;;6101476;23;20172;-71
2023/10/20 01:41:31;;;;;;;12.80;11.43;;;14.80;99.90;;;;;;6101015;23;20391;-71
2023/10/20 01:43:56;;;;;;;13.53;11.40;;;14.80;99.90;;;;;;6099788;23;20191;-71
2023/10/20 01:46:23;;;;;;;12.33;11.13;;;14.80;99.90;;;;;;6102589;23;20368;-70
2023/10/20 01:48:48;;;;;;;11.10;10.00;;;14.80;99.90;;;;;;6101011;23;20477;-71
2023/10/20 01:51:14;;;;;;;11.40;9.80;;;14.80;99.90;;;;;;6108644;23;20396;-71
2023/10/20 01:53:41;;;;;;;12.00;10.80;;;14.80;99.90;;;;;;6101294;23;20175;-71
2023/10/20 01:56:06;;;;;;;12.27;10.30;;;14.70;99.90;;;;;;6101925;23;20371;-70
2023/10/20 01:58:32;;;;;;;10.80;9.70;;;14.70;99.90;;;;;;6101785;23;20183;-70
2023/10/20 02:00:58;;;;;;;12.80;10.70;;;14.70;99.90;;;;;;6100515;23;20515;-70
2023/10/20 02:03:24;;;;;;;10.93;9.83;;;14.70;99.90;;;;;;6101445;23;20399;-72
2023/10/20 02:05:49;;;;;;;10.07;9.07;;;14.60;99.90;;;;;;6100549;23;20136;-70
2023/10/20 02:08:15;;;;;;;10.20;9.23;;;14.60;99.90;;;;;;6102259;23;20147;-70
2023/10/20 02:10:43;;;;;;;10.17;9.13;;;14.60;99.90;;;;;;6100373;23;20162;-71
2023/10/20 02:13:08;;;;;;;9.83;8.83;;;14.60;99.90;;;;;;6100261;23;20185;-71
2023/10/20 02:15:34;;;;;;;9.20;7.80;;;14.60;99.90;;;;;;6101468;23;20626;-72
2023/10/20 02:18:01;;;;;;;8.77;7.97;;;14.60;99.90;;;;;;6100957;23;20167;-70
2023/10/20 02:20:27;;;;;;;8.03;7.23;;;14.60;99.90;;;;;;6123558;23;20374;-71
2023/10/20 02:22:53;;;;;;;7.77;6.97;;;14.60;99.90;;;;;;6123784;23;20451;-71
2023/10/20 02:25:20;;;;;;;9.00;8.10;;;14.60;99.90;;;;;;6099455;23;20172;-69
2023/10/20 02:27:47;;;;;;;8.53;7.13;;;14.60;99.90;;;;;;6100228;23;20806;-70
2023/10/20 02:30:16;;;;;;;7.87;7.00;;;14.60;99.90;;;;;;6099821;23;20373;-71
2023/10/20 02:32:42;;;;;;;7.90;6.80;;;14.60;99.90;;;;;;6099203;23;20816;-70
2023/10/20 02:35:08;;;;;;;9.00;8.10;;;14.60;99.90;;;;;;6101527;23;20388;-71
2023/10/20 02:37:34;;;;;;;7.53;6.83;;;14.60;99.90;;;;;;6099458;23;20162;-70
2023/10/20 02:40:04;;;;;;;10.03;7.10;;;14.60;99.90;;;;;;6100667;23;20361;-71
2023/10/20 02:42:31;;;;;;;7.83;6.37;;;14.60;99.90;;;;;;6100076;23;20180;-72
2023/10/20 02:44:57;;;;;;;7.47;5.80;;;14.70;99.90;;;;;;6100737;23;20862;-70
2023/10/20 02:47:22;;;;;;;7.60;6.13;;;14.60;99.90;;;;;;6100943;23;20361;-72
2023/10/20 02:49:53;;;;;;;6.27;5.67;;;14.70;99.90;;;;;;6100521;23;20213;-70
2023/10/20 02:52:18;;;;;;;5.67;5.17;;;14.70;99.90;;;;;;6100823;23;20149;-69
2023/10/20 02:54:47;;;;;;;6.70;5.70;;;14.70;99.90;;;;;;6101401;23;20699;-71
2023/10/20 02:57:12;;;;;;;7.30;5.70;;;14.70;99.90;;;;;;6100805;23;20135;-70
2023/10/20 02:59:38;;;;;;;6.20;5.60;;;14.70;99.90;;;;;;6100393;23;20831;-70
2023/10/20 03:02:04;;;;;;;5.50;5.00;;;14.60;99.90;;;;;;6100990;23;20570;-71
2023/10/20 03:04:30;;;;;;;6.07;4.77;;;14.60;99.90;;;;;;6100796;23;20203;-72
2023/10/20 03:06:55;;;;;;;5.00;4.53;;;14.60;99.90;;;;;;6101274;23;20140;-71
2023/10/20 03:09:22;;;;;;;6.33;4.80;;;14.70;99.90;;;;;;6101172;23;20147;-70
2023/10/20 03:11:47;;;;;;;5.23;4.73;;;14.60;99.90;;;;;;6100960;23;20155;-71
2023/10/20 03:14:13;;;;;;;5.53;4.70;;;14.70;99.90;;;;;;6100934;23;20387;-71
2023/10/20 03:16:42;;;;;;;5.00;4.07;;;14.70;99.90;;;;;;6101655;23;20143;-71
2023/10/20 03:19:11;;;;;;;5.00;4.60;;;14.70;99.90;;;;;;6101335;23;20186;-71
2023/10/20 03:21:38;;;;;;;5.10;4.50;;;14.70;99.90;;;;;;6101812;23;20358;-71
2023/10/20 03:24:04;;;;;;;8.83;4.17;;;14.70;99.90;;;;;;6101322;23;20640;-70
2023/10/20 03:26:30;;;;;;;5.27;4.73;;;14.70;99.90;;;;;;6102595;23;20389;-70
2023/10/20 03:28:56;;;;;;;7.20;5.00;;;14.70;99.90;;;;;;6101935;23;20368;-72
2023/10/20 03:31:22;;;;;;;5.13;4.70;;;14.70;99.90;;;;;;6102912;23;20144;-71
2023/10/20 03:33:48;;;;;;;7.80;3.87;;;14.70;99.90;;;;;;6102745;23;20164;-71
2023/10/20 03:36:14;;;;;;;5.33;4.33;;;14.70;99.90;;;;;;6101431;23;20460;-70
2023/10/20 03:38:40;;;;;;;6.17;5.57;;;14.80;99.90;;;;;;6103008;23;20216;-70
2023/10/20 03:41:09;;;;;;;4.87;4.40;;;14.80;99.90;;;;;;6102983;23;20651;-72
2023/10/20 03:43:35;;;;;;;7.00;4.67;;;14.80;99.90;;;;;;6103398;23;20687;-71
2023/10/20 03:46:03;;;;;;;4.50;4.03;;;14.80;99.90;;;;;;6101670;23;20384;-71
2023/10/20 03:48:29;;;;;;;4.60;4.00;;;14.80;99.90;;;;;;6102371;23;20407;-71
2023/10/20 03:50:58;;;;;;;4.93;4.43;;;14.80;99.90;;;;;;6102179;23;20362;-70
2023/10/20 03:53:27;;;;;;;6.33;5.73;;;14.80;99.90;;;;;;6102424;23;20239;-70
2023/10/20 03:56:04;;;;;;;5.20;4.70;;;14.80;99.90;;;;;;6102109;23;20371;-70
2023/10/20 03:58:30;;;;;;;4.33;3.93;;;14.80;99.90;;;;;;6100874;23;20430;-71
2023/10/20 04:01:03;;;;;;;6.03;4.83;;;14.80;99.90;;;;;;6101942;23;20428;-73
2023/10/20 04:03:32;;;;;;;5.37;4.87;;;14.80;99.90;;;;;;6101117;23;20394;-72
2023/10/20 04:05:58;;;;;;;5.17;4.70;;;14.80;99.90;;;;;;6102570;23;20360;-71
2023/10/20 04:08:24;;;;;;;5.63;4.90;;;14.80;99.90;;;;;;6102446;23;20381;-71
2023/10/20 04:10:57;;;;;;;7.37;4.57;;;14.80;99.90;;;;;;6101815;23;20376;-70
2023/10/20 04:13:25;;;;;;;6.23;5.10;;;14.80;99.90;;;;;;6101266;23;20447;-70
2023/10/20 04:15:54;;;;;;;4.50;4.10;;;14.80;99.90;;;;;;6101864;23;20359;-71
2023/10/20 04:18:20;;;;;;;5.20;4.70;;;14.80;99.90;;;;;;6101479;23;20432;-71
2023/10/20 04:20:50;;;;;;;7.30;5.70;;;14.80;99.90;;;;;;6107473;23;20394;-71
2023/10/20 04:23:18;;;;;;;6.30;5.33;;;14.80;99.90;;;;;;6101786;23;20392;-72
2023/10/20 04:25:52;;;;;;;5.53;4.90;;;14.80;99.90;;;;;;6102772;23;20448;-70
2023/10/20 04:28:32;;;;;;;4.70;4.30;;;14.80;99.90;;;;;;6101849;23;20368;-71
2023/10/20 04:50:47;;;;;;;6.80;6.10;;;14.70;99.90;;;;;;6044463;23;20373;-72
2023/10/20 04:58:34;;;;;;;7.33;5.87;;;14.60;99.90;;;;;;6044308;23;20432;-71
2023/10/20 05:01:17;;;;;;;6.60;6.00;;;14.60;99.90;;;;;;6045017;23;20370;-71
2023/10/20 05:03:45;;;;;;;7.33;6.63;;;14.70;99.90;;;;;;6045293;23;20405;-70
2023/10/20 05:06:26;;;;;;;9.40;6.70;;;14.60;99.90;;;;;;6044797;23;20388;-72
2023/10/20 05:08:53;;;;;;;4.93;4.43;;;14.60;99.90;;;;;;6046181;23;20376;-71
2023/10/20 05:11:20;;;;;;;7.57;4.80;;;14.60;99.90;;;;;;6045455;23;20624;-71
2023/10/20 05:13:46;;;;;;;5.87;4.83;;;14.60;99.90;;;;;;6044157;23;20419;-71
2023/10/20 05:16:12;;;;;;;7.43;5.43;;;14.50;99.90;;;;;;6045077;23;20428;-71
2023/10/20 05:18:42;;;;;;;5.33;4.80;;;14.50;99.90;;;;;;6078823;23;20222;-71
2023/10/20 05:21:08;;;;;;;5.80;4.63;;;14.50;99.90;;;;;;6105400;23;20619;-72
2023/10/20 05:23:36;;;;;;;6.57;5.00;;;14.50;99.90;;;;;;6112089;23;20384;-72
2023/10/20 05:26:02;;;;;;;6.17;5.50;;;14.50;99.90;;;;;;6117719;23;20444;-71
2023/10/20 05:28:29;;;;;;;4.90;4.40;;;14.50;99.90;;;;;;6115982;23;20361;-74
2023/10/20 05:30:55;;;;;;;7.10;4.87;;;14.50;99.90;;;;;;6114284;23;20374;-71
2023/10/20 05:33:21;;;;;;;5.60;4.97;;;14.50;99.90;;;;;;6104295;23;20502;-72
2023/10/20 05:35:47;;;;;;;7.50;4.70;;;14.50;99.90;;;;;;6106750;23;20376;-73
2023/10/20 05:38:12;;;;;;;4.77;4.30;;;14.40;99.90;;;;;;6105724;23;20168;-72
2023/10/20 05:40:39;;;;;;;5.17;4.20;;;14.40;99.90;;;;;;6104711;23;20137;-72
2023/10/20 05:43:08;;;;;;;4.97;4.30;;;14.30;99.90;;;;;;6106072;23;20242;-73
2023/10/20 05:45:40;;;;;;;5.60;4.73;;;14.30;99.90;;;;;;6108429;23;20366;-72
2023/10/20 05:48:07;;;;;;;5.30;4.80;;;14.30;99.90;;;;;;6108078;23;20442;-72
2023/10/20 05:50:35;;;;;;;8.20;6.00;;;14.30;99.90;;;;;;6107099;23;20467;-72
2023/10/20 05:53:01;;;;;;;4.87;4.33;;;14.30;99.90;;;;;;6108183;23;20365;-71
2023/10/20 05:55:26;;;;;;;6.63;4.03;;;14.20;99.90;;;;;;6106114;23;20403;-71
2023/10/20 05:57:52;;;;;;;4.10;3.70;;;14.20;99.90;;;;;;6106670;23;20141;-73
2023/10/20 06:00:18;;;;;;;4.87;4.40;;;14.20;99.90;;;;;;6106967;23;20162;-72
2023/10/20 06:02:46;;;;;;;5.17;4.20;;;14.20;99.90;;;;;;6107467;23;20192;-73
2023/10/20 06:05:13;;;;;;;10.83;4.37;;;14.20;99.90;;;;;;6109146;23;20383;-73
2023/10/20 06:07:41;;;;;;;5.47;4.47;;;14.20;99.90;;;;;;6106214;23;20834;-73
2023/10/20 06:10:13;;;;;;;4.37;3.97;;;14.20;99.90;;;;;;6107373;23;20368;-72
2023/10/20 06:12:40;;;;;;;6.53;4.27;;;14.20;99.90;;;;;;6106494;23;20389;-75
2023/10/20 06:15:08;;;;;;;5.30;4.43;;;14.10;99.90;;;;;;6106721;23;20414;-73
2023/10/20 06:17:35;;;;;;;5.67;4.73;;;14.10;99.90;;;;;;6107206;23;20369;-73
2023/10/20 06:20:06;;;;;;;5.37;3.87;;;14.10;99.90;;;;;;6108380;23;20381;-72
2023/10/20 06:22:32;;;;;;;4.90;4.10;;;14.10;99.90;;;;;;6104908;23;20788;-72
2023/10/20 06:24:59;;;;;;;7.67;4.50;;;14.10;99.90;;;;;;6112437;23;20405;-73
2023/10/20 06:27:25;;;;;;;5.53;3.83;;;14.10;99.90;;;;;;6114726;23;20144;-73
2023/10/20 06:30:05;;;;;;;7.30;5.20;;;14.10;99.90;;;;;;6109988;23;20366;-73
2023/10/20 06:32:36;;;;;;;8.60;5.30;;;14.10;99.90;;;;;;6108693;23;20373;-72
2023/10/20 06:35:02;;;;;;;7.13;5.07;;;14.10;99.90;;;;;;6107021;23;20398;-72
2023/10/20 06:40:16;;;;;;;8.90;6.13;;;14.10;99.90;;;;;;6080038;23;20392;-74
2023/10/20 06:42:44;;;;;;;9.67;6.77;;;14.10;99.90;;;;;;6108887;23;20385;-73
2023/10/20 06:45:13;;;;;;;10.47;6.87;;;14.10;99.90;;;;;;6107096;23;20524;-72
2023/10/20 06:47:42;;;;;;;9.60;6.93;;;14.10;99.90;;;;;;6131147;23;20380;-72
2023/10/20 06:50:10;;;;;;;10.10;7.23;;;14.10;99.90;;;;;;6109351;23;20612;-73
2023/10/20 06:52:36;;;;;;;13.60;7.97;;;14.10;99.90;;;;;;6130261;23;20367;-71
2023/10/20 06:55:03;;;;;;;12.67;8.57;;;14.10;99.90;;;;;;6110147;23;20481;-71
2023/10/20 06:57:29;;;;;;;14.47;8.90;;;14.10;99.90;;;;;;6111879;23;20171;-73
2023/10/20 06:59:55;;;;;;;14.17;9.30;;;14.10;99.90;;;;;;6109885;23;20414;-73
2023/10/20 07:02:21;;;;;;;15.43;10.43;;;14.10;99.90;;;;;;6108446;23;20191;-73
2023/10/20 07:04:48;;;;;;;15.20;9.87;;;14.10;99.90;;;;;;6110455;23;20220;-73
2023/10/20 07:07:15;;;;;;;12.27;8.67;;;14.10;99.90;;;;;;6111855;23;20357;-76
2023/10/20 07:09:41;;;;;;;11.50;8.53;;;14.10;99.90;;;;;;6108719;23;20676;-73
2023/10/20 07:12:07;;;;;;;12.30;8.60;;;14.10;99.90;;;;;;6108519;23;20391;-74
2023/10/20 07:14:34;;;;;;;14.30;9.30;;;14.10;99.90;;;;;;6111072;23;20388;-73
2023/10/20 07:17:03;;;;;;;17.00;10.37;;;14.10;99.90;;;;;;6108614;23;20365;-73
2023/10/20 07:19:33;;;;;;;19.13;11.03;;;14.10;99.90;;;;;;6108443;23;20467;-75
2023/10/20 07:22:04;;;;;;;18.40;10.67;;;14.10;99.90;;;;;;6107817;23;20373;-73
2023/10/20 07:24:30;;;;;;;17.30;10.57;;;14.10;99.90;;;;;;6111358;23;20395;-74
2023/10/20 07:26:56;;;;;;;18.30;10.70;;;14.10;99.90;;;;;;6110631;23;20357;-74
2023/10/20 07:29:22;;;;;;;15.77;9.87;;;14.10;99.90;;;;;;6109504;23;20836;-74
2023/10/20 07:31:48;;;;;;;14.70;9.67;;;14.10;99.90;;;;;;6112742;23;20366;-74
2023/10/20 07:34:14;;;;;;;16.83;10.73;;;14.10;99.90;;;;;;6088824;23;20172;-74
2023/10/20 07:36:41;;;;;;;17.73;11.13;;;14.10;99.90;;;;;;6111690;23;20191;-74
2023/10/20 07:39:08;;;;;;;13.40;8.57;;;14.10;99.90;;;;;;6111663;23;20392;-74
2023/10/20 07:41:35;;;;;;;10.40;7.67;;;14.10;99.90;;;;;;6113000;23;20382;-75
2023/10/20 07:44:02;;;;;;;14.80;9.13;;;14.10;99.90;;;;;;6111680;23;20434;-74
2023/10/20 07:46:28;;;;;;;13.80;9.17;;;14.10;99.90;;;;;;6116389;23;20377;-75
2023/10/20 07:48:57;;;;;;;12.33;8.43;;;14.10;99.90;;;;;;6114581;23;20373;-76
2023/10/20 07:51:23;;;;;;;13.30;8.87;;;14.10;99.90;;;;;;6091277;23;20169;-75
2023/10/20 07:53:49;;;;;;;12.00;7.20;;;14.10;99.90;;;;;;6086958;23;20416;-74
2023/10/20 07:56:15;;;;;;;9.20;6.73;;;14.20;99.90;;;;;;6111808;23;20358;-76
2023/10/20 07:58:40;;;;;;;10.63;6.70;;;14.20;99.90;;;;;;6086991;23;20628;-74
2023/10/20 08:01:09;;;;;;;9.90;7.17;;;14.20;99.90;;;;;;6115770;23;20258;-75
2023/10/20 08:03:37;;;;;;;10.40;8.33;;;14.20;99.90;;;;;;6090945;23;20176;-75
2023/10/20 08:06:05;;;;;;;11.10;7.27;;;14.30;99.90;;;;;;6114902;23;20369;-76
2023/10/20 08:08:33;;;;;;;9.40;7.30;;;14.30;99.90;;;;;;6089551;23;20386;-75
2023/10/20 08:10:59;;;;;;;10.47;6.97;;;14.30;99.90;;;;;;6063311;23;20398;-75
2023/10/20 08:13:25;;;;;;;14.60;9.87;;;14.30;99.90;;;;;;6134917;23;20397;-73
2023/10/20 08:15:50;;;;;;;11.33;8.70;;;14.30;99.90;;;;;;6109954;23;20414;-73
2023/10/20 08:18:16;;;;;;;15.00;9.27;;;14.30;99.90;;;;;;6111905;23;20166;-74
2023/10/20 08:20:42;;;;;;;12.47;8.40;;;14.30;99.90;;;;;;6110196;23;20134;-74
2023/10/20 08:23:09;;;;;;;14.60;9.60;;;14.30;99.90;;;;;;6087319;23;20794;-75
2023/10/20 08:25:38;;;;;;;11.07;7.37;;;14.30;99.90;;;;;;6064509;23;20438;-72
2023/10/20 08:28:04;;;;;;;13.93;9.67;;;14.30;99.90;;;;;;6108472;23;20363;-74
2023/10/20 08:30:30;;;;;;;12.40;8.60;;;14.40;99.90;;;;;;6109401;23;20381;-76
2023/10/20 08:32:55;;;;;;;11.77;8.77;;;14.40;99.90;;;;;;6110966;23;20525;-74
2023/10/20 08:35:22;;;;;;;9.00;7.03;;;14.40;99.90;;;;;;6114000;23;20134;-73
2023/10/20 08:37:49;;;;;;;10.33;7.43;;;14.40;99.90;;;;;;6111661;23;20152;-74
2023/10/20 08:40:15;;;;;;;9.00;6.70;;;14.40;99.90;;;;;;6113060;23;20403;-74
2023/10/20 08:42:40;;;;;;;9.10;6.13;;;14.40;99.90;;;;;;6089570;23;20362;-75
2023/10/20 08:45:13;;;;;;;9.97;7.00;;;14.40;99.90;;;;;;6115619;23;20502;-75
2023/10/20 08:47:41;;;;;;;10.60;7.77;;;14.40;99.90;;;;;;6115529;23;20391;-76
2023/10/20 08:50:09;;;;;;;11.83;7.63;;;14.40;99.90;;;;;;6094035;23;20372;-77
2023/10/20 08:52:36;;;;;;;11.83;8.33;;;14.30;99.90;;;;;;6093213;23;20400;-75
2023/10/20 08:55:29;;;;;;;12.13;7.40;;;14.30;99.90;;;;;;6094466;23;20519;-76
2023/10/20 08:57:55;;;;;;;13.07;8.57;;;14.30;99.90;;;;;;6093528;23;20426;-77
2023/10/20 09:00:25;;;;;;;11.43;7.57;;;14.40;99.90;;;;;;6119087;23;20848;-76
2023/10/20 09:02:58;;;;;;;10.33;7.20;;;14.30;99.90;;;;;;6117281;23;20437;-77
2023/10/20 09:05:24;;;;;;;10.50;7.30;;;14.30;99.90;;;;;;6116294;23;20441;-74
2023/10/20 09:07:54;;;;;;;12.10;7.63;;;14.30;99.90;;;;;;6111632;23;20374;-74
2023/10/20 09:10:20;;;;;;;11.57;8.50;;;14.30;99.90;;;;;;6091373;23;20162;-75
2023/10/20 09:12:46;;;;;;;11.00;7.90;;;14.30;99.90;;;;;;6089027;23;20404;-74
2023/10/20 09:15:11;;;;;;;12.93;7.93;;;14.30;99.90;;;;;;6116229;23;20171;-76
2023/10/20 09:17:37;;;;;;;9.80;7.50;;;14.30;99.90;;;;;;6114803;23;20141;-77
2023/10/20 09:20:11;;;;;;;13.60;9.07;;;14.30;99.90;;;;;;6115527;23;20163;-74
2023/10/20 09:22:44;;;;;;;11.70;7.60;;;14.30;99.90;;;;;;6091568;23;20377;-78
2023/10/20 09:25:12;;;;;;;12.27;8.40;;;14.40;99.90;;;;;;6091325;23;20411;-73
2023/10/20 09:27:38;;;;;;;13.50;8.63;;;14.40;99.90;;;;;;6113810;23;20368;-74
2023/10/20 09:30:08;;;;;;;15.57;9.90;;;14.50;99.90;;;;;;6115761;23;20373;-77
2023/10/20 09:32:57;;;;;;;11.87;8.70;;;14.50;99.90;;;;;;6115671;23;20148;-77
2023/10/20 09:35:23;;;;;;;16.20;10.50;;;14.50;99.90;;;;;;6137210;23;20375;-74
2023/10/20 09:37:56;;;;;;;13.53;8.60;;;14.40;99.90;;;;;;6115622;23;20445;-75
2023/10/20 09:40:22;;;;;;;15.07;9.53;;;14.50;99.90;;;;;;6116067;23;20382;-78
2023/10/20 09:43:12;;;;;;;13.57;8.67;;;14.50;99.90;;;;;;6114066;23;20388;-77
2023/10/20 09:45:43;;;;;;;14.00;8.73;;;14.50;99.90;;;;;;6113647;23;20378;-76
2023/10/20 09:48:19;;;;;;;12.77;8.63;;;14.50;99.90;;;;;;6114384;23;20382;-77
2023/10/20 09:50:46;;;;;;;11.50;8.00;;;14.50;99.90;;;;;;6138379;23;20420;-74
2023/10/20 09:53:17;;;;;;;13.70;7.50;;;14.50;99.90;;;;;;6109625;23;20398;-73
2023/10/20 09:55:47;;;;;;;11.80;8.20;;;14.50;99.90;;;;;;6112897;23;20378;-75
2023/10/20 09:58:13;;;;;;;10.13;6.60;;;14.60;99.90;;;;;;6088527;23;20424;-73
2023/10/20 10:00:43;;;;;;;11.07;7.67;;;14.60;99.90;;;;;;6113688;23;20374;-75
2023/10/20 10:03:12;;;;;;;12.80;8.90;;;14.50;99.90;;;;;;6034983;23;20483;-75
2023/10/20 10:05:39;;;;;;;14.43;8.47;;;14.50;99.90;;;;;;6036595;23;20411;-74
2023/10/20 10:08:07;;;;;;;9.93;8.00;;;14.50;99.90;;;;;;6085807;23;20375;-74
2023/10/20 10:10:37;;;;;;;14.70;8.90;;;14.50;99.90;;;;;;6036668;23;20388;-78
2023/10/20 10:13:06;;;;;;;11.60;8.20;;;14.60;99.90;;;;;;6056176;23;20384;-76
2023/10/20 10:15:45;;;;;;;12.53;7.70;;;14.60;99.90;;;;;;6057161;23;20386;-76
2023/10/20 10:18:16;;;;;;;14.70;10.03;;;14.60;99.90;;;;;;6080288;23;20426;-76
2023/10/20 10:20:48;;;;;;;12.87;9.17;;;14.60;99.90;;;;;;6032671;23;20777;-75
2023/10/20 10:23:14;;;;;;;15.30;8.97;;;14.60;99.90;;;;;;6079384;23;20918;-77
2023/10/20 10:25:46;;;;;;;12.07;8.90;;;14.60;99.90;;;;;;6033580;23;20371;-78
2023/10/20 10:28:17;;;;;;;11.27;7.40;;;14.60;99.90;;;;;;6038302;23;20424;-77
2023/10/20 10:30:45;;;;;;;10.30;7.47;;;14.60;99.90;;;;;;6063305;23;20370;-75
2023/10/20 10:33:12;;;;;;;9.50;7.27;;;14.50;99.90;;;;;;6062679;23;20450;-75
2023/10/20 10:35:39;;;;;;;10.63;7.40;;;14.50;99.90;;;;;;6118184;23;20398;-79
2023/10/20 10:38:21;;;;;;;7.97;6.87;;;14.60;99.90;;;;;;6114594;23;20404;-76
2023/10/20 10:40:47;;;;;;;10.00;7.17;;;14.70;99.90;;;;;;6116205;23;20397;-74
2023/10/20 10:43:23;;;;;;;8.67;6.60;;;14.80;99.90;;;;;;6120333;23;20359;-75
2023/10/20 10:45:52;;;;;;;8.37;6.83;;;14.90;99.90;;;;;;6086683;23;20699;-77
2023/10/20 10:48:22;;;;;;;9.67;7.33;;;14.80;99.90;;;;;;6088201;23;20402;-78
2023/10/20 10:51:08;;;;;;;9.60;7.80;;;14.80;99.90;;;;;;6067742;23;20431;-77
2023/10/20 10:54:05;;;;;;;8.80;7.90;;;14.80;99.90;;;;;;6092800;23;20484;-77
2023/10/20 10:56:58;;;;;;;8.00;6.80;;;14.80;99.90;;;;;;6078512;23;20387;-77
2023/10/20 10:59:27;;;;;;;8.93;7.37;;;14.70;99.90;;;;;;6046953;23;20416;-78
2023/10/20 11:01:53;;;;;;;8.80;6.93;;;14.70;99.90;;;;;;6088126;23;20407;-76
2023/10/20 11:04:20;;;;;;;10.83;7.57;;;14.70;99.90;;;;;;6063731;23;20413;-76
2023/10/20 11:06:46;;;;;;;8.90;6.47;;;14.70;99.90;;;;;;6089443;23;20666;-77
2023/10/20 11:09:22;;;;;;;10.00;7.60;;;14.70;99.90;;;;;;6067851;23;20369;-76
2023/10/20 11:12:07;;;;;;;8.43;6.77;;;14.60;99.90;;;;;;6091956;23;20386;-77
2023/10/20 11:14:42;;;;;;;8.20;6.30;;;14.60;99.90;;;;;;6091939;23;20411;-75
2023/10/20 11:17:09;;;;;;;8.50;6.90;;;14.60;99.90;;;;;;6124457;23;20418;-77
2023/10/20 11:19:48;;;;;;;8.43;6.97;;;14.60;99.90;;;;;;6097754;23;20495;-76
2023/10/20 11:22:16;;;;;;;7.33;5.93;;;14.60;99.90;;;;;;6121019;23;20378;-78
2023/10/20 11:25:00;;;;;;;7.57;6.23;;;14.60;99.90;;;;;;6123693;23;20435;-77
2023/10/20 11:27:27;;;;;;;8.13;6.30;;;14.70;99.90;;;;;;6121880;23;20371;-77
2023/10/20 11:29:52;;;;;;;6.40;5.43;;;14.70;99.90;;;;;;6097205;23;20442;-76
2023/10/20 11:32:39;;;;;;;7.13;5.87;;;14.60;99.90;;;;;;6122355;23;20163;-77
2023/10/20 11:35:06;;;;;;;6.77;6.10;;;14.60;99.90;;;;;;6074391;23;20215;-77
2023/10/20 11:37:35;;;;;;;9.80;6.93;;;14.60;99.90;;;;;;6120916;23;20754;-77
2023/10/20 11:40:01;;;;;;;8.00;6.90;;;14.50;99.90;;;;;;6118972;23;20421;-76
2023/10/20 11:42:26;;;;;;;9.00;7.07;;;14.50;99.90;;;;;;6120693;23;20368;-76
2023/10/20 11:44:55;;;;;;;8.07;7.03;;;14.60;99.90;;;;;;6094212;23;20476;-75
2023/10/20 11:47:22;;;;;;;11.27;8.27;;;14.60;99.90;;;;;;6098002;23;20424;-77
2023/10/20 11:49:54;;;;;;;9.50;7.40;;;14.70;99.90;;;;;;6106723;23;20447;-77
2023/10/20 11:52:29;;;;;;;16.30;8.13;;;14.60;99.90;;;;;;6129030;23;20376;-75
2023/10/20 11:54:57;;;;;;;11.13;8.93;;;14.60;99.90;;;;;;6102484;23;20869;-77
2023/10/20 11:57:23;;;;;;;10.73;8.23;;;14.60;99.90;;;;;;6103870;23;20406;-75
2023/10/20 11:59:51;;;;;;;10.50;8.67;;;14.60;99.90;;;;;;6101778;23;20471;-77
2023/10/20 12:02:40;;;;;;;16.00;10.50;;;14.60;99.90;;;;;;6152949;23;20207;-77
2023/10/20 12:05:08;;;;;;;16.97;11.90;;;14.60;99.90;;;;;;6128848;23;20429;-76
2023/10/20 12:07:42;;;;;;;14.57;10.90;;;14.60;99.90;;;;;;6104918;23;20373;-77
2023/10/20 12:10:12;;;;;;;18.17;11.60;;;14.60;99.90;;;;;;6127012;23;20438;-73
2023/10/20 12:15:21;;;;;;;21.57;14.73;;;14.70;99.90;;;;;;6035961;23;20470;-76
2023/10/20 12:17:46;;;;;;;17.70;12.70;;;14.70;99.90;;;;;;6031637;23;20436;-76
2023/10/20 12:20:13;;;;;;;13.40;11.30;;;14.70;99.90;;;;;;6059208;23;20369;-76
2023/10/20 12:22:44;;;;;;;14.83;10.37;;;14.70;99.90;;;;;;6036503;23;20141;-76
2023/10/20 12:25:11;;;;;;;19.07;12.00;;;14.70;99.90;;;;;;6008755;23;20413;-75
2023/10/20 12:27:37;;;;;;;17.40;12.10;;;14.70;99.90;;;;;;5986496;23;20819;-76
2023/10/20 12:30:05;;;;;;;13.37;10.23;;;14.80;99.90;;;;;;5983247;23;20387;-77
2023/10/20 12:32:32;;;;;;;16.10;12.60;;;14.80;99.90;;;;;;6033357;23;20385;-75
2023/10/20 12:34:57;;;;;;;18.97;12.77;;;14.80;99.90;;;;;;5987050;23;20410;-76
2023/10/20 12:37:23;;;;;;;22.07;16.70;;;14.90;99.90;;;;;;6051608;23;20440;-76
2023/10/20 12:39:51;;;;;;;25.33;18.03;;;14.90;99.90;;;;;;6092085;23;20177;-77
2023/10/20 12:42:27;;;;;;;24.57;16.03;;;14.90;99.90;;;;;;6092670;23;20369;-76
2023/10/20 12:44:54;;;;;;;24.93;17.50;;;14.90;99.90;;;;;;6084990;23;20404;-76
2023/10/20 12:47:22;;;;;;;20.47;15.37;;;14.90;99.90;;;;;;6066650;23;20403;-77
2023/10/20 12:49:57;;;;;;;17.70;13.20;;;14.80;99.90;;;;;;6090520;23;20384;-76
2023/10/20 12:52:28;;;;;;;19.67;15.07;;;14.80;99.90;;;;;;6090693;23;20442;-76
2023/10/20 12:55:00;;;;;;;21.53;14.37;;;14.80;99.90;;;;;;6092496;23;20431;-76
2023/10/20 12:57:30;;;;;;;18.67;13.87;;;14.80;99.90;;;;;;6066569;23;20404;-77
2023/10/20 12:59:59;;;;;;;16.93;13.50;;;14.70;99.90;;;;;;6093246;23;20417;-78
2023/10/20 13:02:24;;;;;;;21.63;16.50;;;14.70;99.90;;;;;;6071051;23;20404;-77
2023/10/20 13:04:52;;;;;;;19.70;15.60;;;14.60;99.90;;;;;;6094660;23;20405;-76
2023/10/20 13:07:24;;;;;;;22.03;17.20;;;14.60;99.90;;;;;;6094442;23;20148;-77
2023/10/20 13:09:54;;;;;;;24.37;16.07;;;14.70;99.90;;;;;;6098511;23;20426;-76
2023/10/20 13:12:20;;;;;;;17.43;14.80;;;14.70;99.90;;;;;;6150085;23;20395;-76
2023/10/20 13:14:51;;;;;;;34.30;21.27;;;14.80;99.90;;;;;;6120903;23;20167;-76